sensor_id;sensor_type;location;lat;lon;timestamp;pressure;altitude;pressure_sealevel;temperature;humidity
41703;BME280;861;48.808;9.006;2023-01-27T00:00:56;97304.59;;;1.52;75.12
41703;BME280;861;48.808;9.006;2023-01-27T00:03:23;97305.81;;;1.72;73.68
41703;BME280;861;48.808;9.006;2023-01-27T00:05:50;97305.41;;;1.44;74.92
41703;BME280;861;48.808;9.006;2023-01-27T00:08:17;97301.59;;;1.53;74.41
41703;BME280;861;48.808;9.006;2023-01-27T00:10:44;97305.94;;;1.20;75.85
41703;BME280;861;48.808;9.006;2023-01-27T00:13:13;97301.06;;;1.22;76.21
41703;BME280;861;48.808;9.006;2023-01-27T00:15:52;97304.53;;;1.23;76.78
41703;BME280;861;48.808;9.006;2023-01-27T00:18:19;97300.25;;;1.22;76.48
41703;BME280;861;48.808;9.006;2023-01-27T00:20:46;97307.28;;;1.52;75.63
41703;BME280;861;48.808;9.006;2023-01-27T00:23:31;97303.78;;;1.60;74.22
41703;BME280;861;48.808;9.006;2023-01-27T00:26:18;97293.56;;;1.45;75.35
41703;BME280;861;48.808;9.006;2023-01-27T00:28:46;97297.34;;;1.52;74.98
41703;BME280;861;48.808;9.006;2023-01-27T00:31:16;97294.63;;;1.61;74.11
41703;BME280;861;48.808;9.006;2023-01-27T00:34:03;97288.16;;;1.62;74.67
41703;BME280;861;48.808;9.006;2023-01-27T00:36:40;97301.75;;;1.57;74.82
41703;BME280;861;48.808;9.006;2023-01-27T00:39:10;97292.09;;;1.65;74.07
41703;BME280;861;48.808;9.006;2023-01-27T00:41:39;97292.25;;;1.59;74.45
41703;BME280;861;48.808;9.006;2023-01-27T00:44:06;97290.53;;;1.64;74.13
41703;BME280;861;48.808;9.006;2023-01-27T00:46:41;97286.81;;;1.77;74.12
41703;BME280;861;48.808;9.006;2023-01-27T00:49:09;97287.78;;;1.72;74.34
41703;BME280;861;48.808;9.006;2023-01-27T00:51:38;97296.63;;;1.73;73.95
41703;BME280;861;48.808;9.006;2023-01-27T00:54:04;97305.84;;;1.54;74.40
41703;BME280;861;48.808;9.006;2023-01-27T00:56:31;97306.56;;;1.72;73.89
41703;BME280;861;48.808;9.006;2023-01-27T00:58:59;97299.34;;;1.64;74.39
41703;BME280;861;48.808;9.006;2023-01-27T01:01:27;97301.28;;;1.55;74.69
41703;BME280;861;48.808;9.006;2023-01-27T01:03:54;97297.47;;;1.65;74.78
41703;BME280;861;48.808;9.006;2023-01-27T01:06:20;97298.25;;;1.65;74.43
41703;BME280;861;48.808;9.006;2023-01-27T01:08:47;97311.84;;;1.51;75.27
41703;BME280;861;48.808;9.006;2023-01-27T01:11:16;97298.53;;;1.72;74.84
41703;BME280;861;48.808;9.006;2023-01-27T01:13:46;97300.13;;;1.65;74.35
41703;BME280;861;48.808;9.006;2023-01-27T01:16:20;97301.19;;;1.81;73.29
41703;BME280;861;48.808;9.006;2023-01-27T01:18:48;97303.06;;;1.80;73.08
41703;BME280;861;48.808;9.006;2023-01-27T01:21:15;97310.72;;;1.61;73.72
41703;BME280;861;48.808;9.006;2023-01-27T01:23:44;97308.69;;;1.58;74.09
41703;BME280;861;48.808;9.006;2023-01-27T01:26:15;97304.34;;;1.83;72.41
41703;BME280;861;48.808;9.006;2023-01-27T01:28:44;97308.59;;;1.84;72.66
41703;BME280;861;48.808;9.006;2023-01-27T01:31:18;97309.63;;;1.62;73.29
41703;BME280;861;48.808;9.006;2023-01-27T01:33:47;97302.13;;;1.38;74.52
41703;BME280;861;48.808;9.006;2023-01-27T01:36:19;97307.41;;;1.64;73.88
41703;BME280;861;48.808;9.006;2023-01-27T01:38:47;97301.31;;;1.46;74.33
41703;BME280;861;48.808;9.006;2023-01-27T01:41:19;97302.41;;;1.54;74.68
41703;BME280;861;48.808;9.006;2023-01-27T01:43:46;97293.69;;;1.57;74.81
41703;BME280;861;48.808;9.006;2023-01-27T01:46:13;97291.91;;;1.70;73.54
41703;BME280;861;48.808;9.006;2023-01-27T01:48:42;97293.03;;;1.69;73.86
41703;BME280;861;48.808;9.006;2023-01-27T01:54:08;97280.94;;;1.54;74.97
41703;BME280;861;48.808;9.006;2023-01-27T01:57:16;97284.13;;;1.77;74.17
41703;BME280;861;48.808;9.006;2023-01-27T02:00:01;97281.59;;;1.80;74.11
41703;BME280;861;48.808;9.006;2023-01-27T02:02:35;97284.25;;;1.89;73.19
41703;BME280;861;48.808;9.006;2023-01-27T02:10:45;97277.09;;;2.01;72.96
41703;BME280;861;48.808;9.006;2023-01-27T02:13:12;97271.47;;;2.15;71.74
41703;BME280;861;48.808;9.006;2023-01-27T02:15:39;97270.38;;;1.87;73.19
41703;BME280;861;48.808;9.006;2023-01-27T02:18:06;97267.97;;;1.94;73.61
41703;BME280;861;48.808;9.006;2023-01-27T02:20:48;97271.75;;;1.93;72.99
41703;BME280;861;48.808;9.006;2023-01-27T02:23:45;97273.38;;;1.85;73.10
41703;BME280;861;48.808;9.006;2023-01-27T02:26:35;97267.72;;;2.07;72.41
41703;BME280;861;48.808;9.006;2023-01-27T02:29:14;97271.72;;;2.01;73.17
41703;BME280;861;48.808;9.006;2023-01-27T02:31:41;97275.81;;;1.99;72.86
41703;BME280;861;48.808;9.006;2023-01-27T02:34:16;97271.22;;;2.08;72.79
41703;BME280;861;48.808;9.006;2023-01-27T02:37:01;97272.78;;;2.09;72.28
41703;BME280;861;48.808;9.006;2023-01-27T02:39:42;97268.25;;;2.01;72.70
41703;BME280;861;48.808;9.006;2023-01-27T02:42:14;97278.50;;;1.99;73.19
41703;BME280;861;48.808;9.006;2023-01-27T02:44:42;97268.06;;;2.06;72.78
41703;BME280;861;48.808;9.006;2023-01-27T02:47:09;97265.84;;;2.08;73.00
41703;BME280;861;48.808;9.006;2023-01-27T02:49:35;97262.53;;;2.02;72.65
41703;BME280;861;48.808;9.006;2023-01-27T02:52:01;97265.16;;;1.90;73.23
41703;BME280;861;48.808;9.006;2023-01-27T02:54:29;97257.50;;;1.72;73.14
41703;BME280;861;48.808;9.006;2023-01-27T02:56:56;97261.28;;;1.71;73.28
41703;BME280;861;48.808;9.006;2023-01-27T02:59:22;97263.69;;;1.64;73.64
41703;BME280;861;48.808;9.006;2023-01-27T03:01:48;97264.34;;;1.90;73.26
41703;BME280;861;48.808;9.006;2023-01-27T03:04:14;97274.72;;;2.00;72.22
41703;BME280;861;48.808;9.006;2023-01-27T03:06:41;97272.28;;;2.15;72.33
41703;BME280;861;48.808;9.006;2023-01-27T03:09:07;97261.47;;;1.95;71.68
41703;BME280;861;48.808;9.006;2023-01-27T03:11:33;97274.34;;;2.10;72.10
41703;BME280;861;48.808;9.006;2023-01-27T03:14:18;97264.72;;;2.09;72.06
41703;BME280;861;48.808;9.006;2023-01-27T03:16:44;97270.25;;;2.12;70.93
41703;BME280;861;48.808;9.006;2023-01-27T03:19:29;97265.94;;;1.91;71.91
41703;BME280;861;48.808;9.006;2023-01-27T03:21:55;97272.22;;;1.95;72.60
41703;BME280;861;48.808;9.006;2023-01-27T03:24:22;97271.09;;;1.96;72.80
41703;BME280;861;48.808;9.006;2023-01-27T03:26:48;97268.88;;;1.98;72.22
41703;BME280;861;48.808;9.006;2023-01-27T03:29:14;97266.16;;;2.06;71.90
41703;BME280;861;48.808;9.006;2023-01-27T03:31:59;97277.41;;;2.00;72.52
41703;BME280;861;48.808;9.006;2023-01-27T03:34:25;97276.69;;;2.11;72.14
41703;BME280;861;48.808;9.006;2023-01-27T03:36:51;97263.06;;;1.96;72.39
41703;BME280;861;48.808;9.006;2023-01-27T03:39:36;97257.34;;;1.97;72.35
41703;BME280;861;48.808;9.006;2023-01-27T03:42:21;97265.34;;;1.77;72.49
41703;BME280;861;48.808;9.006;2023-01-27T03:45:07;97265.22;;;1.73;73.82
41703;BME280;861;48.808;9.006;2023-01-27T03:47:51;97272.59;;;1.85;73.92
41703;BME280;861;48.808;9.006;2023-01-27T03:50:18;97277.88;;;2.02;72.47
41703;BME280;861;48.808;9.006;2023-01-27T03:53:03;97277.59;;;2.24;71.94
41703;BME280;861;48.808;9.006;2023-01-27T03:55:34;97273.28;;;2.02;72.30
41703;BME280;861;48.808;9.006;2023-01-27T03:58:03;97283.06;;;2.07;72.71
41703;BME280;861;48.808;9.006;2023-01-27T04:00:47;97302.72;;;1.90;73.10
41703;BME280;861;48.808;9.006;2023-01-27T04:03:15;97289.56;;;1.97;72.88
41703;BME280;861;48.808;9.006;2023-01-27T04:06:09;97283.34;;;2.14;72.05
41703;BME280;861;48.808;9.006;2023-01-27T04:08:56;97285.53;;;2.20;72.80
41703;BME280;861;48.808;9.006;2023-01-27T04:11:24;97286.69;;;2.11;72.57
41703;BME280;861;48.808;9.006;2023-01-27T04:14:11;97283.00;;;2.15;71.96
41703;BME280;861;48.808;9.006;2023-01-27T04:16:39;97285.84;;;2.19;72.27
41703;BME280;861;48.808;9.006;2023-01-27T04:19:09;97284.34;;;2.30;70.27
41703;BME280;861;48.808;9.006;2023-01-27T04:21:37;97274.97;;;2.15;71.19
41703;BME280;861;48.808;9.006;2023-01-27T04:24:04;97285.69;;;2.15;71.57
41703;BME280;861;48.808;9.006;2023-01-27T04:26:45;97290.66;;;2.05;72.24
41703;BME280;861;48.808;9.006;2023-01-27T04:29:12;97294.22;;;2.17;71.71
41703;BME280;861;48.808;9.006;2023-01-27T04:31:40;97297.03;;;2.21;71.37
41703;BME280;861;48.808;9.006;2023-01-27T04:34:10;97296.66;;;2.31;71.08
41703;BME280;861;48.808;9.006;2023-01-27T04:36:38;97298.06;;;2.08;71.34
41703;BME280;861;48.808;9.006;2023-01-27T04:39:06;97298.03;;;1.79;72.76
41703;BME280;861;48.808;9.006;2023-01-27T04:41:34;97302.03;;;1.64;73.43
41703;BME280;861;48.808;9.006;2023-01-27T04:44:02;97300.13;;;1.73;73.17
41703;BME280;861;48.808;9.006;2023-01-27T04:46:30;97305.34;;;1.70;73.95
41703;BME280;861;48.808;9.006;2023-01-27T04:48:56;97299.06;;;1.95;73.24
41703;BME280;861;48.808;9.006;2023-01-27T04:51:23;97292.00;;;1.90;72.87
41703;BME280;861;48.808;9.006;2023-01-27T04:53:49;97294.44;;;1.75;73.66
41703;BME280;861;48.808;9.006;2023-01-27T04:56:54;97304.75;;;2.02;73.14
41703;BME280;861;48.808;9.006;2023-01-27T04:59:25;97303.13;;;2.09;72.33
41703;BME280;861;48.808;9.006;2023-01-27T05:01:52;97295.72;;;2.06;72.74
41703;BME280;861;48.808;9.006;2023-01-27T05:04:18;97288.97;;;2.21;72.17
41703;BME280;861;48.808;9.006;2023-01-27T05:06:44;97297.63;;;1.97;71.73
41703;BME280;861;48.808;9.006;2023-01-27T05:09:10;97298.66;;;1.84;73.22
41703;BME280;861;48.808;9.006;2023-01-27T05:11:36;97294.00;;;2.02;72.62
41703;BME280;861;48.808;9.006;2023-01-27T05:14:03;97294.44;;;2.04;72.73
41703;BME280;861;48.808;9.006;2023-01-27T05:16:29;97298.81;;;2.17;72.02
41703;BME280;861;48.808;9.006;2023-01-27T05:18:55;97300.78;;;1.99;72.97
41703;BME280;861;48.808;9.006;2023-01-27T05:21:25;97297.84;;;1.92;73.28
41703;BME280;861;48.808;9.006;2023-01-27T05:23:56;97294.84;;;1.85;73.71
41703;BME280;861;48.808;9.006;2023-01-27T05:26:27;97295.47;;;1.91;73.66
41703;BME280;861;48.808;9.006;2023-01-27T05:28:57;97292.91;;;1.94;73.54
41703;BME280;861;48.808;9.006;2023-01-27T05:31:29;97292.28;;;2.26;71.93
41703;BME280;861;48.808;9.006;2023-01-27T05:34:01;97283.78;;;1.87;73.75
41703;BME280;861;48.808;9.006;2023-01-27T05:36:29;97281.84;;;1.67;74.54
41703;BME280;861;48.808;9.006;2023-01-27T05:38:58;97300.47;;;1.63;74.94
41703;BME280;861;48.808;9.006;2023-01-27T05:41:28;97311.25;;;1.92;73.80
41703;BME280;861;48.808;9.006;2023-01-27T05:43:57;97321.03;;;1.88;73.71
41703;BME280;861;48.808;9.006;2023-01-27T05:46:28;97329.72;;;1.94;73.57
41703;BME280;861;48.808;9.006;2023-01-27T05:49:01;97319.91;;;1.98;73.20
41703;BME280;861;48.808;9.006;2023-01-27T05:51:37;97328.34;;;2.17;72.79
41703;BME280;861;48.808;9.006;2023-01-27T05:54:06;97338.91;;;2.22;71.64
41703;BME280;861;48.808;9.006;2023-01-27T05:56:33;97343.97;;;1.77;72.84
41703;BME280;861;48.808;9.006;2023-01-27T05:59:00;97340.06;;;1.75;73.43
41703;BME280;861;48.808;9.006;2023-01-27T06:01:31;97332.50;;;1.59;74.56
41703;BME280;861;48.808;9.006;2023-01-27T06:04:00;97335.66;;;1.62;74.80
41703;BME280;861;48.808;9.006;2023-01-27T06:06:31;97335.34;;;1.72;74.14
41703;BME280;861;48.808;9.006;2023-01-27T06:08:58;97317.84;;;1.57;75.23
41703;BME280;861;48.808;9.006;2023-01-27T06:11:25;97327.59;;;1.70;74.40
41703;BME280;861;48.808;9.006;2023-01-27T06:13:53;97324.41;;;1.77;74.42
41703;BME280;861;48.808;9.006;2023-01-27T06:16:21;97319.69;;;1.74;74.30
41703;BME280;861;48.808;9.006;2023-01-27T06:18:49;97322.34;;;1.82;74.25
41703;BME280;861;48.808;9.006;2023-01-27T06:21:16;97327.28;;;1.72;74.47
41703;BME280;861;48.808;9.006;2023-01-27T06:23:43;97323.63;;;1.76;74.56
41703;BME280;861;48.808;9.006;2023-01-27T06:26:15;97325.00;;;1.91;73.62
41703;BME280;861;48.808;9.006;2023-01-27T06:28:44;97322.31;;;1.91;73.25
41703;BME280;861;48.808;9.006;2023-01-27T06:31:18;97323.47;;;1.81;73.70
41703;BME280;861;48.808;9.006;2023-01-27T06:33:47;97320.63;;;1.78;73.69
41703;BME280;861;48.808;9.006;2023-01-27T06:36:18;97328.53;;;1.66;74.45
41703;BME280;861;48.808;9.006;2023-01-27T06:38:47;97329.41;;;1.40;75.70
41703;BME280;861;48.808;9.006;2023-01-27T06:41:14;97327.44;;;1.67;74.78
41703;BME280;861;48.808;9.006;2023-01-27T06:43:40;97334.28;;;1.55;75.29
41703;BME280;861;48.808;9.006;2023-01-27T06:46:07;97345.06;;;1.85;74.58
41703;BME280;861;48.808;9.006;2023-01-27T06:48:34;97344.84;;;1.61;75.18
41703;BME280;861;48.808;9.006;2023-01-27T06:51:00;97347.31;;;1.74;75.47
41703;BME280;861;48.808;9.006;2023-01-27T06:53:26;97354.97;;;1.93;73.76
41703;BME280;861;48.808;9.006;2023-01-27T06:56:00;97356.41;;;1.90;73.41
41703;BME280;861;48.808;9.006;2023-01-27T06:58:28;97353.47;;;1.75;73.92
41703;BME280;861;48.808;9.006;2023-01-27T07:00:55;97356.22;;;1.58;74.77
41703;BME280;861;48.808;9.006;2023-01-27T07:03:22;97360.66;;;1.91;73.79
41703;BME280;861;48.808;9.006;2023-01-27T07:05:49;97366.44;;;1.64;75.03
41703;BME280;861;48.808;9.006;2023-01-27T07:08:16;97365.38;;;1.48;75.66
41703;BME280;861;48.808;9.006;2023-01-27T07:10:42;97374.47;;;1.81;73.98
41703;BME280;861;48.808;9.006;2023-01-27T07:13:13;97373.81;;;1.76;73.88
41703;BME280;861;48.808;9.006;2023-01-27T07:15:40;97381.88;;;1.76;74.51
41703;BME280;861;48.808;9.006;2023-01-27T07:18:10;97390.13;;;1.53;75.85
41703;BME280;861;48.808;9.006;2023-01-27T07:20:37;97390.91;;;1.71;75.27
41703;BME280;861;48.808;9.006;2023-01-27T07:23:04;97392.94;;;1.83;74.23
41703;BME280;861;48.808;9.006;2023-01-27T07:25:34;97391.69;;;1.72;74.84
41703;BME280;861;48.808;9.006;2023-01-27T07:28:02;97396.91;;;1.59;75.62
41703;BME280;861;48.808;9.006;2023-01-27T07:30:30;97406.03;;;1.76;75.25
41703;BME280;861;48.808;9.006;2023-01-27T07:33:11;97402.41;;;1.80;74.81
41703;BME280;861;48.808;9.006;2023-01-27T07:35:40;97402.75;;;1.53;75.16
41703;BME280;861;48.808;9.006;2023-01-27T07:38:08;97405.00;;;1.51;75.55
41703;BME280;861;48.808;9.006;2023-01-27T07:40:35;97406.19;;;1.71;75.25
41703;BME280;861;48.808;9.006;2023-01-27T07:43:02;97409.53;;;1.76;75.01
41703;BME280;861;48.808;9.006;2023-01-27T07:45:29;97407.00;;;1.71;75.05
41703;BME280;861;48.808;9.006;2023-01-27T07:48:06;97408.22;;;1.91;74.71
41703;BME280;861;48.808;9.006;2023-01-27T07:50:39;97405.25;;;1.75;74.82
41703;BME280;861;48.808;9.006;2023-01-27T07:53:10;97413.59;;;1.82;75.15
41703;BME280;861;48.808;9.006;2023-01-27T07:55:36;97411.41;;;1.84;75.67
41703;BME280;861;48.808;9.006;2023-01-27T07:58:03;97417.38;;;1.90;74.98
41703;BME280;861;48.808;9.006;2023-01-27T08:00:30;97407.84;;;2.09;73.66
41703;BME280;861;48.808;9.006;2023-01-27T08:02:59;97419.25;;;1.89;74.24
41703;BME280;861;48.808;9.006;2023-01-27T08:05:30;97428.63;;;1.75;75.74
41703;BME280;861;48.808;9.006;2023-01-27T08:07:58;97424.63;;;1.98;74.56
41703;BME280;861;48.808;9.006;2023-01-27T08:10:29;97422.31;;;1.79;74.07
41703;BME280;861;48.808;9.006;2023-01-27T08:12:56;97416.72;;;2.01;73.46
41703;BME280;861;48.808;9.006;2023-01-27T08:15:22;97421.53;;;1.62;74.27
41703;BME280;861;48.808;9.006;2023-01-27T08:17:58;97427.50;;;1.67;74.54
41703;BME280;861;48.808;9.006;2023-01-27T08:20:27;97424.34;;;1.74;74.37
41703;BME280;861;48.808;9.006;2023-01-27T08:22:53;97421.22;;;1.72;74.61
41703;BME280;861;48.808;9.006;2023-01-27T08:25:21;97433.19;;;1.66;74.21
41703;BME280;861;48.808;9.006;2023-01-27T08:27:55;97428.78;;;1.70;74.92
41703;BME280;861;48.808;9.006;2023-01-27T08:30:23;97442.03;;;1.75;74.53
41703;BME280;861;48.808;9.006;2023-01-27T08:32:50;97439.06;;;1.59;74.66
41703;BME280;861;48.808;9.006;2023-01-27T08:35:17;97430.50;;;1.74;73.86
41703;BME280;861;48.808;9.006;2023-01-27T08:37:45;97434.16;;;1.70;74.67
41703;BME280;861;48.808;9.006;2023-01-27T08:40:16;97453.44;;;1.29;75.64
41703;BME280;861;48.808;9.006;2023-01-27T08:42:42;97449.47;;;1.43;75.42
41703;BME280;861;48.808;9.006;2023-01-27T08:45:09;97450.25;;;1.61;74.10
41703;BME280;861;48.808;9.006;2023-01-27T08:47:35;97443.31;;;1.60;74.57
41703;BME280;861;48.808;9.006;2023-01-27T08:50:01;97455.66;;;1.35;75.03
41703;BME280;861;48.808;9.006;2023-01-27T08:52:28;97455.97;;;1.51;75.03
41703;BME280;861;48.808;9.006;2023-01-27T08:54:56;97456.72;;;1.77;72.85
41703;BME280;861;48.808;9.006;2023-01-27T08:57:23;97452.47;;;1.68;74.21
41703;BME280;861;48.808;9.006;2023-01-27T08:59:50;97454.06;;;1.69;74.41
41703;BME280;861;48.808;9.006;2023-01-27T09:02:16;97452.75;;;1.83;74.58
41703;BME280;861;48.808;9.006;2023-01-27T09:04:42;97456.84;;;1.89;73.39
41703;BME280;861;48.808;9.006;2023-01-27T09:07:10;97467.44;;;1.77;74.17
41703;BME280;861;48.808;9.006;2023-01-27T09:09:36;97454.03;;;1.86;74.53
41703;BME280;861;48.808;9.006;2023-01-27T09:12:03;97452.44;;;2.02;73.11
41703;BME280;861;48.808;9.006;2023-01-27T09:14:29;97458.41;;;1.99;74.39
41703;BME280;861;48.808;9.006;2023-01-27T09:16:55;97452.13;;;1.86;73.77
41703;BME280;861;48.808;9.006;2023-01-27T09:19:21;97446.56;;;2.00;73.15
41703;BME280;861;48.808;9.006;2023-01-27T09:21:48;97448.94;;;2.01;73.24
41703;BME280;861;48.808;9.006;2023-01-27T09:24:14;97448.03;;;1.89;74.05
41703;BME280;861;48.808;9.006;2023-01-27T09:26:43;97450.59;;;2.23;71.87
41703;BME280;861;48.808;9.006;2023-01-27T09:29:09;97455.72;;;1.99;73.42
41703;BME280;861;48.808;9.006;2023-01-27T09:31:35;97447.66;;;2.16;72.62
41703;BME280;861;48.808;9.006;2023-01-27T09:34:01;97448.13;;;2.09;72.99
41703;BME280;861;48.808;9.006;2023-01-27T09:36:28;97461.94;;;1.82;73.85
41703;BME280;861;48.808;9.006;2023-01-27T09:39:06;97474.34;;;2.04;73.54
41703;BME280;861;48.808;9.006;2023-01-27T09:45:23;97462.88;;;1.69;75.87
41703;BME280;861;48.808;9.006;2023-01-27T09:54:52;97465.41;;;2.46;72.43
41703;BME280;861;48.808;9.006;2023-01-27T09:58:25;97455.09;;;2.48;70.94
41703;BME280;861;48.808;9.006;2023-01-27T10:01:43;97463.06;;;2.27;71.97
41703;BME280;861;48.808;9.006;2023-01-27T10:15:14;97464.41;;;2.04;72.29
41703;BME280;861;48.808;9.006;2023-01-27T10:25:55;97464.44;;;1.87;73.96
41703;BME280;861;48.808;9.006;2023-01-27T10:28:36;97455.88;;;2.02;73.29
41703;BME280;861;48.808;9.006;2023-01-27T10:31:51;97451.25;;;2.11;72.98
41703;BME280;861;48.808;9.006;2023-01-27T10:34:34;97455.06;;;2.10;72.81
41703;BME280;861;48.808;9.006;2023-01-27T10:47:57;97464.03;;;2.23;72.42
41703;BME280;861;48.808;9.006;2023-01-27T10:51:09;97463.59;;;2.12;72.66
41703;BME280;861;48.808;9.006;2023-01-27T10:54:31;97463.91;;;2.11;73.41
41703;BME280;861;48.808;9.006;2023-01-27T10:57:18;97461.81;;;2.25;72.23
41703;BME280;861;48.808;9.006;2023-01-27T11:00:11;97459.16;;;2.16;73.04
41703;BME280;861;48.808;9.006;2023-01-27T11:03:30;97461.72;;;1.96;72.94
41703;BME280;861;48.808;9.006;2023-01-27T11:06:20;97458.34;;;2.24;72.00
41703;BME280;861;48.808;9.006;2023-01-27T11:12:01;97463.53;;;2.38;72.19
41703;BME280;861;48.808;9.006;2023-01-27T11:14:50;97465.81;;;2.19;72.04
41703;BME280;861;48.808;9.006;2023-01-27T11:18:14;97469.72;;;2.30;71.39
41703;BME280;861;48.808;9.006;2023-01-27T11:21:24;97465.03;;;2.56;70.65
41703;BME280;861;48.808;9.006;2023-01-27T11:23:58;97463.81;;;2.45;71.39
41703;BME280;861;48.808;9.006;2023-01-27T11:26:52;97463.88;;;2.19;71.43
41703;BME280;861;48.808;9.006;2023-01-27T11:29:53;97461.75;;;2.50;71.46
41703;BME280;861;48.808;9.006;2023-01-27T11:35:41;97446.22;;;2.85;70.77
41703;BME280;861;48.808;9.006;2023-01-27T11:38:19;97465.63;;;2.90;69.90
41703;BME280;861;48.808;9.006;2023-01-27T11:40:51;97460.03;;;2.75;70.54
41703;BME280;861;48.808;9.006;2023-01-27T11:43:23;97451.50;;;3.02;68.52
41703;BME280;861;48.808;9.006;2023-01-27T11:46:04;97450.50;;;2.57;70.10
41703;BME280;861;48.808;9.006;2023-01-27T11:48:45;97446.59;;;2.75;70.51
41703;BME280;861;48.808;9.006;2023-01-27T11:51:34;97434.88;;;2.50;70.79
41703;BME280;861;48.808;9.006;2023-01-27T11:54:14;97424.13;;;2.50;71.46
41703;BME280;861;48.808;9.006;2023-01-27T11:56:48;97426.56;;;2.93;68.46
41703;BME280;861;48.808;9.006;2023-01-27T11:59:40;97432.97;;;2.80;69.88
41703;BME280;861;48.808;9.006;2023-01-27T12:05:09;97434.06;;;2.50;70.66
41703;BME280;861;48.808;9.006;2023-01-27T12:07:57;97433.88;;;2.84;69.42
41703;BME280;861;48.808;9.006;2023-01-27T12:13:20;97432.78;;;2.85;69.86
41703;BME280;861;48.808;9.006;2023-01-27T12:16:03;97433.06;;;2.63;70.82
41703;BME280;861;48.808;9.006;2023-01-27T12:18:58;97430.16;;;2.68;70.37
41703;BME280;861;48.808;9.006;2023-01-27T12:21:50;97421.69;;;2.57;70.23
41703;BME280;861;48.808;9.006;2023-01-27T12:24:32;97419.56;;;2.71;70.60
41703;BME280;861;48.808;9.006;2023-01-27T12:27:04;97427.34;;;2.64;71.42
41703;BME280;861;48.808;9.006;2023-01-27T12:29:49;97420.94;;;2.48;72.18
41703;BME280;861;48.808;9.006;2023-01-27T12:32:44;97414.97;;;2.43;72.21
41703;BME280;861;48.808;9.006;2023-01-27T12:35:23;97417.28;;;2.53;71.93
41703;BME280;861;48.808;9.006;2023-01-27T12:38:13;97426.13;;;2.82;70.63
41703;BME280;861;48.808;9.006;2023-01-27T12:41:21;97412.78;;;2.94;70.08
41703;BME280;861;48.808;9.006;2023-01-27T12:44:18;97428.13;;;2.65;71.57
41703;BME280;861;48.808;9.006;2023-01-27T12:47:25;97419.88;;;2.41;72.35
41703;BME280;861;48.808;9.006;2023-01-27T12:50:22;97417.69;;;2.92;70.94
41703;BME280;861;48.808;9.006;2023-01-27T12:53:10;97426.91;;;2.54;70.87
41703;BME280;861;48.808;9.006;2023-01-27T12:56:14;97421.88;;;2.52;71.69
41703;BME280;861;48.808;9.006;2023-01-27T12:58:57;97422.84;;;2.48;72.03
41703;BME280;861;48.808;9.006;2023-01-27T13:01:34;97426.25;;;2.65;71.16
41703;BME280;861;48.808;9.006;2023-01-27T13:04:18;97422.97;;;2.60;71.70
41703;BME280;861;48.808;9.006;2023-01-27T13:10:03;97424.91;;;2.80;71.58
41703;BME280;861;48.808;9.006;2023-01-27T13:12:59;97428.38;;;2.43;72.93
41703;BME280;861;48.808;9.006;2023-01-27T13:15:30;97437.56;;;2.42;73.10
41703;BME280;861;48.808;9.006;2023-01-27T13:18:18;97426.50;;;2.43;72.87
41703;BME280;861;48.808;9.006;2023-01-27T13:21:34;97426.25;;;2.65;71.73
41703;BME280;861;48.808;9.006;2023-01-27T13:24:30;97427.81;;;2.66;71.31
41703;BME280;861;48.808;9.006;2023-01-27T13:27:11;97426.75;;;2.59;72.08
41703;BME280;861;48.808;9.006;2023-01-27T13:30:13;97417.97;;;2.41;73.06
41703;BME280;861;48.808;9.006;2023-01-27T13:33:01;97424.69;;;2.56;72.46
41703;BME280;861;48.808;9.006;2023-01-27T13:35:59;97427.41;;;2.56;72.14
41703;BME280;861;48.808;9.006;2023-01-27T13:38:58;97426.75;;;2.59;71.99
41703;BME280;861;48.808;9.006;2023-01-27T13:41:53;97440.00;;;2.64;72.35
41703;BME280;861;48.808;9.006;2023-01-27T13:45:14;97430.38;;;2.63;72.33
41703;BME280;861;48.808;9.006;2023-01-27T13:47:55;97438.28;;;2.88;71.03
41703;BME280;861;48.808;9.006;2023-01-27T13:50:38;97446.63;;;2.66;70.45
41703;BME280;861;48.808;9.006;2023-01-27T13:53:18;97443.44;;;2.44;72.56
41703;BME280;861;48.808;9.006;2023-01-27T13:56:00;97444.50;;;2.43;72.83
41703;BME280;861;48.808;9.006;2023-01-27T14:05:40;97452.38;;;2.10;73.69
41703;BME280;861;48.808;9.006;2023-01-27T14:09:00;97457.75;;;2.19;72.81
41703;BME280;861;48.808;9.006;2023-01-27T14:18:36;97459.53;;;1.98;74.17
41703;BME280;861;48.808;9.006;2023-01-27T14:21:36;97465.84;;;2.02;74.23
41703;BME280;861;48.808;9.006;2023-01-27T14:24:45;97458.19;;;2.21;73.47
41703;BME280;861;48.808;9.006;2023-01-27T14:27:39;97464.41;;;2.13;74.14
41703;BME280;861;48.808;9.006;2023-01-27T14:30:24;97462.31;;;2.18;74.10
41703;BME280;861;48.808;9.006;2023-01-27T14:33:18;97473.16;;;2.30;73.27
41703;BME280;861;48.808;9.006;2023-01-27T14:36:24;97466.88;;;2.18;73.61
41703;BME280;861;48.808;9.006;2023-01-27T14:47:01;97465.34;;;2.54;72.51
41703;BME280;861;48.808;9.006;2023-01-27T14:50:28;97455.34;;;2.26;73.71
41703;BME280;861;48.808;9.006;2023-01-27T14:57:29;97470.69;;;2.25;73.89
41703;BME280;861;48.808;9.006;2023-01-27T15:10:30;97464.03;;;2.31;72.65
41703;BME280;861;48.808;9.006;2023-01-27T15:21:07;97460.91;;;2.12;73.89
41703;BME280;861;48.808;9.006;2023-01-27T15:24:20;97461.44;;;2.43;72.67
41703;BME280;861;48.808;9.006;2023-01-27T15:26:55;97471.28;;;2.31;73.76
41703;BME280;861;48.808;9.006;2023-01-27T15:29:29;97482.34;;;2.38;72.65
41703;BME280;861;48.808;9.006;2023-01-27T15:32:25;97483.09;;;2.47;72.62
41703;BME280;861;48.808;9.006;2023-01-27T15:35:34;97483.00;;;2.64;71.54
41703;BME280;861;48.808;9.006;2023-01-27T15:41:09;97478.44;;;2.64;72.41
41703;BME280;861;48.808;9.006;2023-01-27T15:46:54;97484.06;;;2.71;70.65
41703;BME280;861;48.808;9.006;2023-01-27T15:49:49;97487.81;;;1.95;73.60
41703;BME280;861;48.808;9.006;2023-01-27T15:52:39;97483.16;;;2.21;73.31
41703;BME280;861;48.808;9.006;2023-01-27T15:55:30;97478.13;;;2.11;74.25
41703;BME280;861;48.808;9.006;2023-01-27T15:58:40;97475.34;;;2.45;72.77
41703;BME280;861;48.808;9.006;2023-01-27T16:01:30;97485.03;;;2.38;72.78
41703;BME280;861;48.808;9.006;2023-01-27T16:04:23;97497.44;;;2.51;71.71
41703;BME280;861;48.808;9.006;2023-01-27T16:07:01;97503.53;;;2.31;72.93
41703;BME280;861;48.808;9.006;2023-01-27T16:09:41;97513.94;;;2.32;73.28
41703;BME280;861;48.808;9.006;2023-01-27T16:15:19;97529.41;;;2.35;73.45
41703;BME280;861;48.808;9.006;2023-01-27T16:23:33;97522.97;;;2.36;73.11
41703;BME280;861;48.808;9.006;2023-01-27T16:26:45;97527.84;;;2.34;73.13